Time;durP1;ratioP1;P1;durP2;ratioP2;P2;SDS_P1;SDS_P2;PMS_P1;PMS_P2;Temp;Humidity;BMP_temperature;BMP_pressure;BME280_temperature;BME280_humidity;BME280_pressure;Samples;Min_cycle;Max_cycle;Signal;HPM_P1;HPM_P2
2023/12/29 00:00:52;;;;;;;137.73;129.25;;;11.70;85.20;;;;;;12709759;28;20035;-72
2023/12/29 00:06:55;;;;;;;131.15;121.57;;;11.70;85.10;;;;;;12691610;28;20035;-72
2023/12/29 00:12:56;;;;;;;133.02;123.60;;;11.70;85.00;;;;;;12709270;28;20031;-72
2023/12/29 00:18:58;;;;;;;143.25;134.38;;;11.70;85.00;;;;;;12691010;28;20467;-72
2023/12/29 00:24:59;;;;;;;165.93;154.15;;;11.70;84.90;;;;;;12707823;28;20444;-72
2023/12/29 00:31:01;;;;;;;162.77;151.95;;;11.60;85.00;;;;;;12708343;28;20035;-72
2023/12/29 00:37:03;;;;;;;108.97;100.10;;;11.70;85.20;;;;;;12689123;28;20034;-72
2023/12/29 00:43:04;;;;;;;143.48;134.40;;;11.70;85.10;;;;;;12707778;28;20031;-72
2023/12/29 00:49:06;;;;;;;116.75;108.93;;;11.60;85.10;;;;;;12707038;28;20028;-72
2023/12/29 00:55:08;;;;;;;123.60;115.68;;;11.50;85.40;;;;;;12671798;28;20039;-72
2023/12/29 01:01:11;;;;;;;175.57;164.90;;;11.50;85.30;;;;;;12688177;28;20034;-72
2023/12/29 01:07:13;;;;;;;165.57;155.73;;;11.50;85.20;;;;;;12688008;28;20031;-72
2023/12/29 01:13:14;;;;;;;183.80;172.95;;;11.50;85.10;;;;;;12671173;28;20039;-73
2023/12/29 01:19:16;;;;;;;134.00;125.57;;;11.60;85.10;;;;;;12687350;28;20028;-72
2023/12/29 01:25:17;;;;;;;162.68;153.57;;;11.60;85.00;;;;;;12687264;28;20027;-72
2023/12/29 01:31:19;;;;;;;193.13;183.20;;;11.50;84.90;;;;;;12705120;28;20436;-72
2023/12/29 01:37:20;;;;;;;153.18;144.18;;;11.40;85.00;;;;;;12704862;28;20032;-72
2023/12/29 01:43:22;;;;;;;117.45;110.63;;;11.40;85.00;;;;;;12687225;28;20043;-72
2023/12/29 01:49:24;;;;;;;136.00;128.45;;;11.50;84.90;;;;;;12686445;28;20031;-72
2023/12/29 01:55:26;;;;;;;119.55;112.18;;;11.30;84.90;;;;;;12704341;28;20034;-72
2023/12/29 02:01:28;;;;;;;157.88;149.73;;;11.20;85.10;;;;;;12686058;28;20039;-72
2023/12/29 02:07:31;;;;;;;111.35;104.88;;;11.00;85.50;;;;;;12703867;28;20034;-72
2023/12/29 02:13:32;;;;;;;102.85;96.68;;;11.10;85.50;;;;;;12669559;28;20027;-72
2023/12/29 02:19:44;;;;;;;127.70;121.28;;;11.00;85.40;;;;;;12686994;28;20032;-72
2023/12/29 02:25:45;;;;;;;98.00;91.72;;;10.90;85.50;;;;;;12669894;28;20043;-72
2023/12/29 02:31:52;;;;;;;86.93;80.85;;;10.80;85.50;;;;;;12686078;28;20340;-72
2023/12/29 02:37:56;;;;;;;78.72;73.53;;;10.80;85.60;;;;;;12685094;28;20035;-72
2023/12/29 02:43:59;;;;;;;43.28;38.22;;;10.70;85.70;;;;;;12685791;28;20035;-72
2023/12/29 02:50:00;;;;;;;46.70;41.60;;;10.60;85.90;;;;;;12685484;28;20035;-73
2023/12/29 02:56:02;;;;;;;70.90;65.95;;;10.80;85.60;;;;;;12703120;28;20031;-73
2023/12/29 03:02:04;;;;;;;71.63;66.82;;;10.80;85.30;;;;;;12706292;28;20023;-72
2023/12/29 03:08:06;;;;;;;37.97;34.00;;;10.80;85.20;;;;;;12693543;28;20447;-72
2023/12/29 03:14:07;;;;;;;59.03;54.25;;;10.60;85.50;;;;;;12693742;28;20039;-72
2023/12/29 03:20:09;;;;;;;57.60;53.20;;;10.50;85.70;;;;;;12711455;28;20042;-72
2023/12/29 03:26:11;;;;;;;74.57;69.05;;;10.70;85.60;;;;;;12711244;28;20031;-73
2023/12/29 03:32:15;;;;;;;81.80;76.30;;;10.70;85.40;;;;;;12693194;28;20028;-72
2023/12/29 03:38:17;;;;;;;83.53;78.03;;;10.90;85.20;;;;;;12675717;28;20040;-72
2023/12/29 03:44:18;;;;;;;85.95;81.25;;;10.80;85.00;;;;;;12710713;28;20030;-74
2023/12/29 03:50:20;;;;;;;74.40;69.85;;;10.80;85.00;;;;;;12692328;28;20050;-74
2023/12/29 03:56:21;;;;;;;109.40;103.80;;;10.80;85.20;;;;;;12710117;28;20031;-74
2023/12/29 04:02:23;;;;;;;78.82;73.97;;;10.80;85.00;;;;;;12709885;28;20031;-74
2023/12/29 04:08:25;;;;;;;92.93;87.15;;;10.70;85.40;;;;;;12709171;28;20031;-74
2023/12/29 04:14:26;;;;;;;89.75;84.22;;;10.90;85.50;;;;;;12672736;28;20042;-74
2023/12/29 04:20:28;;;;;;;91.55;86.22;;;11.10;85.00;;;;;;12690218;28;20035;-74
2023/12/29 04:26:29;;;;;;;102.13;96.65;;;11.00;84.70;;;;;;12708131;28;20035;-75
2023/12/29 04:32:31;;;;;;;77.93;73.30;;;11.00;84.90;;;;;;12707788;28;20024;-74
2023/12/29 04:38:33;;;;;;;84.40;79.53;;;11.20;85.00;;;;;;12707657;28;20028;-74
2023/12/29 04:44:35;;;;;;;91.72;86.70;;;11.10;84.80;;;;;;12707218;28;20027;-74
2023/12/29 04:50:37;;;;;;;119.28;113.15;;;11.20;84.90;;;;;;12706937;28;20035;-75
2023/12/29 04:56:38;;;;;;;110.57;104.28;;;11.30;84.50;;;;;;12706551;28;20038;-74
2023/12/29 05:02:40;;;;;;;128.05;121.22;;;11.20;84.60;;;;;;12672258;28;20229;-74
2023/12/29 05:08:41;;;;;;;92.07;86.13;;;11.50;84.70;;;;;;12672363;28;20044;-74
2023/12/29 05:14:43;;;;;;;93.13;87.43;;;11.70;84.50;;;;;;12705941;28;20031;-74
2023/12/29 05:20:44;;;;;;;71.72;67.18;;;11.70;84.10;;;;;;12687478;28;20436;-74
2023/12/29 05:26:46;;;;;;;51.97;47.78;;;11.80;84.00;;;;;;12704970;28;20031;-74
2023/12/29 05:32:47;;;;;;;43.42;40.05;;;11.90;83.70;;;;;;12705187;28;20027;-73
2023/12/29 05:38:49;;;;;;;42.85;39.15;;;12.00;83.50;;;;;;12704922;28;20451;-73
2023/12/29 05:44:50;;;;;;;36.10;32.35;;;12.00;83.10;;;;;;12704825;28;20359;-73
2023/12/29 05:50:53;;;;;;;44.45;40.88;;;12.00;83.10;;;;;;12704579;28;20024;-73
2023/12/29 05:56:54;;;;;;;70.03;65.72;;;11.70;83.40;;;;;;12704859;28;20058;-72
2023/12/29 06:02:56;;;;;;;75.15;69.45;;;11.60;83.90;;;;;;12704310;28;20023;-72
2023/12/29 06:08:58;;;;;;;108.63;103.15;;;11.70;83.40;;;;;;12704829;28;20321;-73
2023/12/29 06:14:59;;;;;;;103.53;98.35;;;11.30;83.70;;;;;;12703997;28;20032;-72
2023/12/29 06:21:04;;;;;;;139.63;132.90;;;11.20;84.10;;;;;;12685719;28;20031;-72
2023/12/29 06:27:08;;;;;;;133.75;127.47;;;11.40;83.80;;;;;;12685720;28;20031;-74
2023/12/29 06:33:10;;;;;;;128.77;122.60;;;11.70;83.50;;;;;;12685667;28;20024;-75
2023/12/29 06:39:12;;;;;;;69.93;65.97;;;11.60;84.10;;;;;;12710316;28;20034;-75
2023/12/29 06:45:14;;;;;;;89.45;84.25;;;11.60;84.80;;;;;;12713044;28;20031;-75
2023/12/29 06:51:22;;;;;;;68.00;63.85;;;11.60;84.60;;;;;;12712772;28;20079;-75
2023/12/29 06:57:27;;;;;;;48.92;45.05;;;11.70;84.20;;;;;;12662637;22;20056;-74
2023/12/29 07:03:28;;;;;;;43.53;40.53;;;11.70;83.80;;;;;;12593027;28;20053;-74
2023/12/29 07:09:30;;;;;;;38.28;35.22;;;11.80;84.10;;;;;;12610883;28;20024;-74
2023/12/29 07:15:33;;;;;;;36.42;33.28;;;11.90;84.00;;;;;;12610611;28;20068;-74
2023/12/29 07:21:35;;;;;;;36.50;33.35;;;11.70;83.70;;;;;;12611106;28;20349;-74
2023/12/29 07:27:38;;;;;;;55.67;51.95;;;11.60;83.70;;;;;;12610146;28;20039;-75
2023/12/29 07:33:41;;;;;;;85.32;81.03;;;11.60;83.60;;;;;;12609803;28;20032;-74
2023/12/29 07:39:42;;;;;;;115.05;109.88;;;11.20;83.80;;;;;;12591669;28;20040;-74
2023/12/29 07:45:44;;;;;;;123.15;117.35;;;11.00;84.50;;;;;;12574864;28;20028;-74
2023/12/29 07:51:47;;;;;;;107.45;101.97;;;11.20;84.60;;;;;;12608725;28;20021;-74
2023/12/29 07:57:48;;;;;;;78.53;74.25;;;11.50;84.30;;;;;;12590710;28;20052;-74
2023/12/29 08:03:51;;;;;;;87.57;83.07;;;11.60;83.90;;;;;;12607968;28;20392;-74
2023/12/29 08:09:53;;;;;;;79.38;75.30;;;11.60;83.80;;;;;;12608055;28;20476;-74
2023/12/29 08:15:54;;;;;;;73.78;69.70;;;11.60;83.70;;;;;;12607833;28;20035;-75
2023/12/29 08:21:57;;;;;;;72.25;68.15;;;11.60;83.70;;;;;;12607335;28;20029;-74
2023/12/29 08:28:00;;;;;;;61.78;58.03;;;11.60;84.00;;;;;;12573422;28;20460;-74
2023/12/29 08:34:26;;;;;;;51.67;48.53;;;11.70;84.10;;;;;;12606941;28;20028;-74
2023/12/29 08:40:28;;;;;;;46.80;43.22;;;11.80;83.80;;;;;;12606477;28;20036;-74
2023/12/29 08:46:30;;;;;;;81.20;77.18;;;11.80;84.20;;;;;;12589327;28;20036;-74
2023/12/29 08:52:33;;;;;;;24.85;22.42;;;11.90;84.10;;;;;;12605906;28;20056;-74
2023/12/29 08:58:34;;;;;;;25.88;23.25;;;12.00;84.20;;;;;;12587183;28;20043;-74
2023/12/29 09:04:36;;;;;;;24.98;22.55;;;12.10;84.30;;;;;;12587574;28;20029;-74
2023/12/29 09:10:38;;;;;;;23.17;20.88;;;12.20;84.20;;;;;;12587493;28;20349;-74
2023/12/29 09:16:42;;;;;;;21.30;19.13;;;12.30;84.30;;;;;;12622067;28;20028;-75
2023/12/29 09:22:44;;;;;;;20.13;17.98;;;12.30;84.60;;;;;;12654952;28;20036;-74
2023/12/29 09:28:45;;;;;;;29.98;20.27;;;12.40;84.90;;;;;;12636926;28;20032;-75
2023/12/29 09:34:47;;;;;;;24.23;18.90;;;12.30;84.60;;;;;;12654641;28;20035;-74
2023/12/29 09:40:51;;;;;;;23.60;19.98;;;12.40;84.40;;;;;;12654352;28;20028;-74
2023/12/29 09:46:54;;;;;;;20.98;18.77;;;12.30;84.10;;;;;;12654252;28;20047;-74
2023/12/29 09:52:57;;;;;;;21.80;17.08;;;12.40;84.20;;;;;;12654972;28;20500;-74
2023/12/29 09:58:59;;;;;;;22.63;18.40;;;12.50;84.70;;;;;;12635768;28;20040;-74
2023/12/29 10:05:03;;;;;;;24.10;20.08;;;12.60;84.80;;;;;;12653752;28;20348;-74
2023/12/29 10:11:07;;;;;;;22.70;20.00;;;12.60;84.90;;;;;;12657226;28;20035;-74
2023/12/29 10:17:39;;;;;;;23.40;20.92;;;12.60;85.10;;;;;;12645561;28;20473;-75
2023/12/29 10:23:48;;;;;;;25.05;21.90;;;12.60;85.00;;;;;;12663508;28;20024;-74
2023/12/29 10:29:49;;;;;;;28.10;25.07;;;12.50;84.80;;;;;;12663189;28;20028;-75
2023/12/29 10:36:07;;;;;;;26.98;22.85;;;12.50;85.10;;;;;;12644710;28;20270;-75
2023/12/29 10:42:09;;;;;;;29.75;25.65;;;12.60;85.00;;;;;;12644459;28;20051;-74
2023/12/29 10:48:11;;;;;;;26.38;22.98;;;12.50;84.80;;;;;;12662474;28;20433;-74
2023/12/29 10:54:23;;;;;;;30.00;26.98;;;12.50;84.70;;;;;;12644157;28;20044;-74
2023/12/29 11:00:30;;;;;;;29.50;26.30;;;12.50;84.60;;;;;;12661617;28;20471;-74
2023/12/29 11:06:44;;;;;;;26.05;23.20;;;12.50;84.70;;;;;;12661512;28;20467;-74
2023/12/29 11:12:47;;;;;;;33.17;24.75;;;12.70;84.70;;;;;;12661168;28;20038;-74
2023/12/29 11:18:52;;;;;;;30.10;22.85;;;12.70;84.40;;;;;;12660793;28;20349;-74
2023/12/29 11:24:54;;;;;;;24.73;22.10;;;12.70;84.30;;;;;;12625202;28;20032;-75
2023/12/29 11:30:56;;;;;;;29.95;23.77;;;12.80;84.30;;;;;;12643091;28;20054;-74
2023/12/29 11:37:18;;;;;;;27.63;24.67;;;12.70;84.10;;;;;;12660025;28;20051;-75
2023/12/29 11:43:20;;;;;;;27.98;25.10;;;12.70;84.00;;;;;;12659228;28;20032;-74
2023/12/29 11:49:22;;;;;;;25.42;22.83;;;12.80;84.10;;;;;;12660131;28;20035;-74
2023/12/29 11:55:30;;;;;;;27.55;24.20;;;12.80;84.20;;;;;;12618799;28;20425;-74
2023/12/29 12:01:35;;;;;;;26.50;23.30;;;12.80;84.20;;;;;;12608322;28;20456;-74
2023/12/29 12:07:40;;;;;;;39.95;36.38;;;12.60;84.30;;;;;;12608302;28;20025;-74
2023/12/29 12:13:46;;;;;;;27.30;23.27;;;12.70;84.90;;;;;;12608059;28;20040;-74
2023/12/29 12:19:48;;;;;;;26.05;23.38;;;12.90;85.00;;;;;;12589877;28;20029;-73
2023/12/29 12:25:56;;;;;;;24.67;20.90;;;12.90;84.70;;;;;;12607394;28;20028;-73
2023/12/29 12:31:58;;;;;;;27.52;24.65;;;13.00;84.50;;;;;;12589295;28;20040;-73
2023/12/29 12:38:14;;;;;;;28.33;23.80;;;13.10;84.90;;;;;;12588489;28;20047;-72
2023/12/29 12:44:16;;;;;;;25.35;22.15;;;13.20;84.90;;;;;;12606365;28;20036;-72
2023/12/29 12:50:18;;;;;;;26.88;23.67;;;13.30;84.60;;;;;;12606109;28;20032;-73
2023/12/29 12:56:20;;;;;;;29.23;25.35;;;13.20;84.50;;;;;;12605725;28;20033;-73
2023/12/29 13:02:22;;;;;;;33.13;25.15;;;13.30;84.70;;;;;;12605522;28;20041;-72
2023/12/29 13:08:25;;;;;;;27.58;24.52;;;13.30;84.20;;;;;;12605320;28;20024;-73
2023/12/29 13:14:26;;;;;;;25.75;23.17;;;12.90;84.40;;;;;;12605176;28;20028;-73
2023/12/29 13:20:28;;;;;;;26.52;22.75;;;12.50;84.90;;;;;;12604830;28;20039;-72
2023/12/29 13:26:30;;;;;;;32.72;28.02;;;12.40;85.40;;;;;;12570408;28;20036;-72
2023/12/29 13:32:34;;;;;;;25.67;22.85;;;12.50;85.70;;;;;;12604458;28;20029;-72
2023/12/29 13:38:55;;;;;;;34.03;27.17;;;12.70;85.30;;;;;;12604880;28;20025;-72
2023/12/29 13:44:59;;;;;;;33.03;29.05;;;12.90;85.10;;;;;;12603776;28;20039;-73
2023/12/29 13:51:00;;;;;;;30.08;25.98;;;13.00;84.80;;;;;;12603697;28;20037;-72
2023/12/29 13:57:02;;;;;;;35.00;31.30;;;13.00;84.60;;;;;;12586719;28;20047;-73
2023/12/29 14:03:10;;;;;;;32.70;29.17;;;12.90;84.70;;;;;;12570236;28;20044;-72
2023/12/29 14:09:16;;;;;;;33.05;28.58;;;12.80;84.70;;;;;;12603602;28;20029;-73
2023/12/29 14:15:18;;;;;;;30.92;25.70;;;12.50;85.20;;;;;;12603398;28;20032;-75
2023/12/29 14:21:31;;;;;;;39.55;36.10;;;12.40;85.60;;;;;;12603330;28;20033;-75
2023/12/29 14:27:33;;;;;;;32.83;29.52;;;12.30;85.30;;;;;;12603162;28;20036;-75
2023/12/29 14:33:36;;;;;;;49.00;44.50;;;12.50;85.40;;;;;;12585220;28;20032;-75
2023/12/29 14:39:38;;;;;;;34.05;29.98;;;12.40;85.40;;;;;;12602689;28;20370;-74
2023/12/29 14:45:40;;;;;;;34.72;31.25;;;12.50;85.40;;;;;;12602511;28;20031;-75
2023/12/29 14:51:42;;;;;;;36.60;30.20;;;12.60;85.30;;;;;;12602550;28;20161;-75
2023/12/29 14:57:44;;;;;;;33.35;29.17;;;12.60;85.20;;;;;;12625324;22;20361;-75
2023/12/29 15:03:46;;;;;;;36.33;32.05;;;12.70;85.00;;;;;;12661617;28;20437;-72
2023/12/29 15:09:48;;;;;;;37.80;34.22;;;12.50;85.00;;;;;;12661428;28;20039;-72
2023/12/29 15:15:49;;;;;;;38.90;34.60;;;12.20;85.50;;;;;;12660007;28;20040;-72
2023/12/29 15:21:53;;;;;;;43.63;39.55;;;12.40;85.40;;;;;;12661486;28;20439;-75
2023/12/29 15:27:55;;;;;;;39.38;33.17;;;12.60;85.10;;;;;;12660426;28;20055;-75
2023/12/29 15:33:57;;;;;;;60.03;55.13;;;12.60;84.80;;;;;;12659110;28;20032;-75
2023/12/29 15:39:59;;;;;;;36.70;32.78;;;12.60;84.90;;;;;;12660627;28;20032;-75
2023/12/29 15:46:01;;;;;;;43.85;39.45;;;12.70;84.60;;;;;;12658456;28;20039;-75
2023/12/29 15:52:03;;;;;;;51.03;46.03;;;12.30;84.80;;;;;;12641640;28;20066;-74
2023/12/29 15:58:06;;;;;;;50.60;45.58;;;12.00;85.40;;;;;;12658671;28;20344;-75
2023/12/29 16:04:08;;;;;;;65.60;59.80;;;12.10;85.60;;;;;;12657374;28;20043;-75
2023/12/29 16:10:10;;;;;;;47.20;42.65;;;12.30;85.30;;;;;;12640484;28;20043;-75
2023/12/29 16:16:12;;;;;;;40.85;36.13;;;12.50;84.80;;;;;;12658228;28;20043;-75
2023/12/29 16:22:14;;;;;;;56.20;50.95;;;12.60;84.50;;;;;;12656779;28;20028;-75
2023/12/29 16:28:16;;;;;;;44.47;39.67;;;12.50;84.40;;;;;;12656530;28;20043;-76
2023/12/29 16:34:17;;;;;;;50.95;46.05;;;12.50;84.40;;;;;;12656995;28;20031;-75
2023/12/29 16:40:19;;;;;;;50.13;45.05;;;12.40;84.30;;;;;;12648346;28;20029;-75
2023/12/29 16:46:21;;;;;;;44.70;40.03;;;12.20;84.40;;;;;;12650554;28;20039;-75
2023/12/29 16:52:22;;;;;;;46.28;40.92;;;12.30;84.70;;;;;;12651123;28;20287;-75
2023/12/29 16:58:24;;;;;;;46.83;41.70;;;12.50;84.60;;;;;;12650313;28;20079;-75
2023/12/29 17:04:26;;;;;;;39.25;34.53;;;12.50;84.30;;;;;;12649859;28;20433;-75
2023/12/29 17:10:28;;;;;;;49.35;44.90;;;12.40;84.30;;;;;;12631799;28;20036;-75
2023/12/29 17:16:29;;;;;;;41.67;37.63;;;12.30;84.20;;;;;;12650237;28;20028;-75
2023/12/29 17:22:31;;;;;;;52.28;47.08;;;12.30;84.40;;;;;;12636634;28;20325;-75
2023/12/29 17:28:33;;;;;;;45.30;40.63;;;12.30;84.50;;;;;;12654953;28;20038;-75
2023/12/29 17:34:35;;;;;;;48.88;44.15;;;12.30;84.50;;;;;;12655424;28;20039;-72
2023/12/29 17:40:37;;;;;;;42.05;37.38;;;12.30;84.60;;;;;;12603171;28;20066;-75
2023/12/29 17:46:38;;;;;;;73.57;69.00;;;12.20;84.50;;;;;;12654321;28;20028;-75
2023/12/29 17:52:40;;;;;;;55.08;51.03;;;12.20;84.40;;;;;;12619458;28;20036;-72
2023/12/29 17:58:42;;;;;;;136.43;129.55;;;11.80;84.30;;;;;;12619760;28;20047;-72
2023/12/29 18:04:44;;;;;;;159.50;150.23;;;11.50;85.10;;;;;;12635638;28;20039;-72
2023/12/29 18:10:47;;;;;;;102.13;95.60;;;11.70;85.50;;;;;;12636554;28;20333;-72
2023/12/29 18:16:48;;;;;;;80.68;74.72;;;11.90;84.90;;;;;;12653619;28;20032;-72
2023/12/29 18:22:50;;;;;;;99.13;91.78;;;12.00;84.80;;;;;;12653288;28;20036;-73
2023/12/29 18:28:52;;;;;;;56.88;51.30;;;12.20;84.80;;;;;;12635176;28;20024;-72
2023/12/29 18:34:53;;;;;;;47.97;43.13;;;12.40;84.70;;;;;;12659483;28;20472;-72
2023/12/29 18:40:55;;;;;;;48.88;43.92;;;12.40;84.40;;;;;;12662772;28;20028;-73
2023/12/29 18:46:58;;;;;;;50.25;44.80;;;12.50;84.40;;;;;;12635017;28;20043;-72
2023/12/29 18:53:00;;;;;;;49.33;44.05;;;12.70;84.40;;;;;;12610621;28;20031;-72
2023/12/29 18:59:03;;;;;;;46.88;41.50;;;12.50;84.20;;;;;;12606141;28;20044;-72
2023/12/29 19:05:05;;;;;;;47.22;42.28;;;12.30;84.10;;;;;;12605336;28;20445;-73
2023/12/29 19:11:07;;;;;;;65.47;59.90;;;12.00;84.40;;;;;;12587064;28;20036;-72
2023/12/29 19:17:09;;;;;;;74.40;67.25;;;12.00;85.00;;;;;;12603993;28;20075;-73
2023/12/29 19:23:11;;;;;;;50.17;44.78;;;12.20;85.10;;;;;;12604803;28;20058;-73
2023/12/29 19:29:12;;;;;;;78.78;72.95;;;12.40;84.50;;;;;;12604957;28;20032;-72
2023/12/29 19:35:14;;;;;;;59.00;50.72;;;12.20;84.20;;;;;;12604581;28;20043;-72
2023/12/29 19:41:20;;;;;;;56.00;50.83;;;12.00;84.60;;;;;;12586552;28;20060;-72
2023/12/29 19:47:25;;;;;;;62.58;56.60;;;12.10;84.60;;;;;;12585204;28;20360;-72
2023/12/29 19:53:27;;;;;;;72.25;66.47;;;12.10;84.50;;;;;;12585336;28;20453;-73
2023/12/29 19:59:29;;;;;;;74.40;68.07;;;12.00;84.50;;;;;;12603241;28;20032;-75
2023/12/29 20:05:31;;;;;;;59.53;53.97;;;12.00;84.60;;;;;;12602679;28;20024;-73
2023/12/29 20:11:39;;;;;;;77.78;71.55;;;12.20;84.70;;;;;;12647008;28;20032;-73
2023/12/29 20:17:40;;;;;;;77.85;71.35;;;12.10;84.40;;;;;;12640231;28;20028;-75
2023/12/29 20:23:42;;;;;;;66.50;61.08;;;12.00;84.70;;;;;;12640204;28;20028;-75
2023/12/29 20:29:44;;;;;;;82.75;76.03;;;12.00;84.50;;;;;;12657739;28;20036;-75
2023/12/29 20:35:46;;;;;;;99.50;93.03;;;11.80;84.90;;;;;;12657511;28;20031;-75
2023/12/29 20:41:47;;;;;;;58.90;53.75;;;11.90;84.90;;;;;;12656463;28;20035;-75
2023/12/29 20:47:49;;;;;;;91.60;84.95;;;11.70;84.80;;;;;;12638743;28;20344;-75
2023/12/29 20:53:51;;;;;;;110.13;102.63;;;11.70;85.10;;;;;;12655860;28;20029;-75
2023/12/29 21:00:36;;;;;;;110.72;103.43;;;11.80;84.90;;;;;;12637970;28;20043;-75
2023/12/29 21:06:38;;;;;;;173.85;164.23;;;11.70;84.60;;;;;;12655999;28;20031;-75
2023/12/29 21:12:40;;;;;;;78.88;73.60;;;11.50;85.00;;;;;;12655757;28;20035;-75
2023/12/29 21:18:42;;;;;;;176.25;166.95;;;11.30;85.30;;;;;;12654269;28;20433;-72
2023/12/29 21:24:44;;;;;;;152.70;144.10;;;11.30;85.70;;;;;;12620267;28;20365;-72
2023/12/29 21:30:46;;;;;;;172.82;163.50;;;11.30;85.40;;;;;;12620127;28;20436;-73
2023/12/29 21:36:47;;;;;;;188.15;178.30;;;11.30;85.60;;;;;;12636705;28;20047;-72
2023/12/29 21:42:49;;;;;;;140.50;132.57;;;11.30;85.40;;;;;;12636523;28;20357;-73
2023/12/29 21:48:50;;;;;;;175.90;166.15;;;11.30;85.50;;;;;;12653933;28;20028;-75
2023/12/29 21:54:52;;;;;;;156.85;147.77;;;11.50;85.70;;;;;;12653870;28;20043;-75
2023/12/29 22:01:32;;;;;;;140.55;132.48;;;11.70;85.50;;;;;;12653839;28;20050;-75
2023/12/29 22:07:35;;;;;;;177.38;168.07;;;11.60;85.40;;;;;;12640434;28;20032;-75
2023/12/29 22:13:37;;;;;;;154.35;146.18;;;11.30;85.50;;;;;;12645963;28;20361;-72
2023/12/29 22:19:41;;;;;;;147.25;138.80;;;11.10;85.80;;;;;;12645864;28;20024;-75
2023/12/29 22:25:47;;;;;;;118.18;110.85;;;11.10;86.00;;;;;;12645232;28;20032;-75
2023/12/29 22:31:49;;;;;;;45.83;39.85;;;11.00;86.00;;;;;;12663536;28;20384;-75
2023/12/29 22:37:51;;;;;;;81.10;76.00;;;10.90;86.10;;;;;;12645281;28;20031;-75
2023/12/29 22:43:52;;;;;;;99.32;92.97;;;10.80;86.20;;;;;;12662792;28;20035;-75
2023/12/29 22:49:54;;;;;;;86.30;79.95;;;10.70;86.30;;;;;;12644520;28;20040;-75
2023/12/29 22:55:56;;;;;;;120.40;113.28;;;10.80;86.50;;;;;;12644054;22;20053;-75
2023/12/29 23:01:57;;;;;;;113.65;106.95;;;11.10;86.20;;;;;;12611547;28;20041;-72
2023/12/29 23:07:59;;;;;;;113.72;107.00;;;11.10;85.90;;;;;;12643366;28;20036;-72
2023/12/29 23:14:01;;;;;;;173.52;164.50;;;11.10;86.10;;;;;;12661358;28;20032;-72
2023/12/29 23:20:03;;;;;;;180.10;170.93;;;11.30;85.90;;;;;;12660161;28;20028;-72
2023/12/29 23:26:05;;;;;;;165.13;156.50;;;11.40;85.70;;;;;;12642291;28;20436;-72
2023/12/29 23:32:07;;;;;;;142.65;134.57;;;11.40;85.50;;;;;;12660536;28;20440;-72
2023/12/29 23:38:13;;;;;;;123.22;116.05;;;11.20;85.70;;;;;;12660278;28;20032;-73
2023/12/29 23:44:23;;;;;;;114.15;107.50;;;11.20;85.80;;;;;;12659910;28;20032;-72
2023/12/29 23:50:37;;;;;;;201.30;191.23;;;11.20;86.00;;;;;;12658648;28;20047;-72
2023/12/29 23:56:38;;;;;;;154.07;146.32;;;11.20;85.90;;;;;;12658058;28;20051;-72
